Time,TemperatureF,DewpointF,PressureIn,WindDirection,WindDirectionDegrees,WindSpeedMPH,WindSpeedGustMPH,Humidity,HourlyPrecipIn,Conditions,Clouds,dailyrainin,SolarRadiationWatts/m^2,SoftwareType,DateUTC
2013-08-11 00:02:00,86.0,68.0,29.68,East,86,1.0,3.0,55,0.00,,,0.00,0.000000,,2013-08-11 05:02:00,
2013-08-11 00:16:00,86.0,68.0,29.67,ENE,63,0.0,3.0,56,0.00,,,0.00,0.000000,,2013-08-11 05:16:00,
2013-08-11 00:23:00,85.0,69.0,29.67,ENE,72,0.0,1.0,58,0.00,,,0.00,0.000000,,2013-08-11 05:23:00,
2013-08-11 00:35:00,85.0,69.0,29.67,ENE,72,0.0,1.0,58,0.00,,,0.00,0.000000,,2013-08-11 05:35:00,
2013-08-11 00:45:00,84.0,69.0,29.67,ENE,72,0.0,0.0,60,0.00,,,0.00,0.000000,,2013-08-11 05:45:00,
2013-08-11 00:53:00,84.0,69.0,29.67,ENE,72,0.0,1.0,61,0.00,,,0.00,0.000000,,2013-08-11 05:53:00,
2013-08-11 01:03:00,84.0,69.0,29.67,ENE,72,0.0,1.0,61,0.00,,,0.00,0.000000,,2013-08-11 06:03:00,
2013-08-11 01:16:00,84.0,69.0,29.67,East,98,1.0,3.0,61,0.00,,,0.00,0.000000,,2013-08-11 06:16:00,
2013-08-11 01:34:00,84.0,70.0,29.67,East,97,0.0,2.0,62,0.00,,,0.00,0.000000,,2013-08-11 06:34:00,
2013-08-11 01:48:00,83.0,70.0,29.66,East,91,0.0,1.0,64,0.00,,,0.00,0.000000,,2013-08-11 06:48:00,
2013-08-11 01:53:00,82.0,69.0,29.66,East,91,0.0,0.0,66,0.00,,,0.00,0.000000,,2013-08-11 06:53:00,
2013-08-11 02:05:00,82.0,69.0,29.66,East,91,0.0,0.0,66,0.00,,,0.00,0.000000,,2013-08-11 07:05:00,
2013-08-11 02:14:00,82.0,69.0,29.66,East,91,0.0,1.0,66,0.00,,,0.00,0.000000,,2013-08-11 07:14:00,
2013-08-11 02:24:00,81.0,69.0,29.66,East,91,0.0,0.0,67,0.00,,,0.00,0.000000,,2013-08-11 07:24:00,
2013-08-11 02:36:00,81.0,69.0,29.66,East,91,0.0,0.0,67,0.00,,,0.00,0.000000,,2013-08-11 07:36:00,
2013-08-11 02:44:00,81.0,70.0,29.66,East,91,0.0,0.0,69,0.00,,,0.00,0.000000,,2013-08-11 07:44:00,
2013-08-11 02:53:00,80.0,69.0,29.67,East,91,0.0,0.0,69,0.00,,,0.00,0.000000,,2013-08-11 07:53:00,
2013-08-11 03:06:00,80.0,69.0,29.67,East,91,0.0,0.0,69,0.00,,,0.00,0.000000,,2013-08-11 08:06:00,
2013-08-11 03:25:00,81.0,70.0,29.66,ESE,104,0.0,1.0,70,0.00,,,0.00,0.000000,,2013-08-11 08:25:00,
2013-08-11 03:34:00,81.0,70.0,29.66,ESE,104,0.0,1.0,70,0.00,,,0.00,0.000000,,2013-08-11 08:34:00,
2013-08-11 03:45:00,80.0,70.0,29.66,ESE,104,0.0,0.0,72,0.00,,,0.00,0.000000,,2013-08-11 08:45:00,
2013-08-11 04:05:00,80.0,70.0,29.66,ESE,104,0.0,1.0,72,0.00,,,0.00,0.000000,,2013-08-11 09:05:00,
2013-08-11 04:13:00,80.0,70.0,29.66,SE,126,0.0,4.0,71,0.00,,,0.00,0.000000,,2013-08-11 09:13:00,
2013-08-11 04:25:00,79.0,70.0,29.66,SE,130,0.0,0.0,73,0.00,,,0.00,0.000000,,2013-08-11 09:25:00,
2013-08-11 04:34:00,79.0,70.0,29.66,SE,130,0.0,0.0,73,0.00,,,0.00,0.000000,,2013-08-11 09:34:00,
2013-08-11 04:43:00,79.0,70.0,29.66,SE,130,0.0,0.0,74,0.00,,,0.00,0.000000,,2013-08-11 09:43:00,
2013-08-11 04:55:00,78.0,69.0,29.66,SE,130,0.0,0.0,75,0.00,,,0.00,0.000000,,2013-08-11 09:55:00,
2013-08-11 05:04:00,78.0,69.0,29.66,SE,130,0.0,0.0,75,0.00,,,0.00,0.000000,,2013-08-11 10:04:00,
2013-08-11 05:13:00,78.0,70.0,29.66,SE,130,0.0,0.0,76,0.00,,,0.00,0.000000,,2013-08-11 10:13:00,
2013-08-11 05:25:00,78.0,69.0,29.66,SE,142,0.0,2.0,74,0.00,,,0.00,0.000000,,2013-08-11 10:25:00,
2013-08-11 05:34:00,78.0,69.0,29.66,SE,142,0.0,2.0,74,0.00,,,0.00,0.000000,,2013-08-11 10:34:00,
2013-08-11 06:06:00,78.0,69.0,29.66,SE,138,0.0,2.0,75,0.00,,,0.00,0.000000,,2013-08-11 11:06:00,
2013-08-11 06:13:00,77.0,69.0,29.66,SE,138,0.0,0.0,76,0.00,,,0.00,0.000000,,2013-08-11 11:13:00,
2013-08-11 06:22:00,77.0,69.0,29.67,SE,138,0.0,0.0,77,0.00,,,0.00,0.000000,,2013-08-11 11:22:00,
2013-08-11 06:36:00,77.0,69.0,29.67,SE,138,0.0,0.0,77,0.00,,,0.00,0.000000,,2013-08-11 11:36:00,
2013-08-11 06:47:00,76.0,69.0,29.67,SE,138,0.0,0.0,78,0.00,,,0.00,0.000000,,2013-08-11 11:47:00,
2013-08-11 06:56:00,76.0,69.0,29.67,SE,138,0.0,0.0,78,0.00,,,0.00,0.000000,,2013-08-11 11:56:00,
2013-08-11 07:05:00,76.0,69.0,29.67,SE,138,0.0,0.0,78,0.00,,,0.00,0.000000,,2013-08-11 12:05:00,
2013-08-11 07:26:00,76.0,69.0,29.69,SE,138,0.0,0.0,80,0.00,,,0.00,16.000000,,2013-08-11 12:26:00,
2013-08-11 07:35:00,76.0,69.0,29.69,SE,138,0.0,0.0,80,0.00,,,0.00,16.000000,,2013-08-11 12:35:00,
2013-08-11 07:45:00,76.0,69.0,29.69,SE,138,0.0,1.0,79,0.00,,,0.00,28.000000,,2013-08-11 12:45:00,
2013-08-11 07:53:00,77.0,69.0,29.70,SE,138,0.0,2.0,77,0.00,,,0.00,51.000000,,2013-08-11 12:53:00,
2013-08-11 08:05:00,77.0,69.0,29.70,SE,138,0.0,2.0,77,0.00,,,0.00,51.000000,,2013-08-11 13:05:00,
2013-08-11 08:24:00,79.0,70.0,29.70,SE,138,2.0,6.0,75,0.00,,,0.00,174.000000,,2013-08-11 13:24:00,
2013-08-11 08:37:00,79.0,70.0,29.70,SE,138,2.0,6.0,75,0.00,,,0.00,174.000000,,2013-08-11 13:37:00,
2013-08-11 08:44:00,79.0,70.0,29.70,East,95,0.0,5.0,74,0.00,,,0.00,227.000000,,2013-08-11 13:44:00,
2013-08-11 08:55:00,80.0,70.0,29.70,SSE,163,1.0,4.0,72,0.00,,,0.00,278.000000,,2013-08-11 13:55:00,
2013-08-11 09:02:00,80.0,70.0,29.70,SSE,163,1.0,4.0,72,0.00,,,0.00,278.000000,,2013-08-11 14:02:00,
2013-08-11 09:23:00,82.0,71.0,29.71,South,169,2.0,6.0,69,0.00,,,0.00,378.000000,,2013-08-11 14:23:00,
2013-08-11 09:34:00,82.0,71.0,29.71,South,169,2.0,6.0,69,0.00,,,0.00,378.000000,,2013-08-11 14:34:00,
2013-08-11 09:46:00,84.0,71.0,29.72,SSW,197,3.0,7.0,66,0.00,,,0.00,432.000000,,2013-08-11 14:46:00,
2013-08-11 09:55:00,84.0,71.0,29.71,South,169,2.0,6.0,66,0.00,,,0.00,482.000000,,2013-08-11 14:55:00,
2013-08-11 10:14:00,86.0,72.0,29.71,South,185,0.0,5.0,64,0.00,,,0.00,526.000000,,2013-08-11 15:14:00,
2013-08-11 10:23:00,86.0,72.0,29.71,South,180,0.0,6.0,63,0.00,,,0.00,575.000000,,2013-08-11 15:23:00,
2013-08-11 10:35:00,86.0,72.0,29.71,South,180,0.0,6.0,63,0.00,,,0.00,575.000000,,2013-08-11 15:35:00,
2013-08-11 10:47:00,88.0,72.0,29.71,SE,134,3.0,6.0,60,0.00,,,0.00,615.000000,,2013-08-11 15:47:00,
2013-08-11 10:55:00,89.0,72.0,29.71,SSE,164,1.0,6.0,58,0.00,,,0.00,663.000000,,2013-08-11 15:55:00,
2013-08-11 11:05:00,89.0,72.0,29.71,SSE,164,1.0,6.0,58,0.00,,,0.00,663.000000,,2013-08-11 16:05:00,
2013-08-11 11:12:00,90.0,72.0,29.71,ESE,108,0.0,5.0,55,0.00,,,0.00,703.000000,,2013-08-11 16:12:00,
2013-08-11 11:25:00,92.0,72.0,29.71,SSE,150,3.0,8.0,53,0.00,,,0.00,744.000000,,2013-08-11 16:25:00,
2013-08-11 11:36:00,92.0,72.0,29.71,SSE,150,3.0,8.0,53,0.00,,,0.00,744.000000,,2013-08-11 16:36:00,
2013-08-11 11:44:00,91.0,71.0,29.71,East,87,0.0,5.0,53,0.00,,,0.00,775.000000,,2013-08-11 16:44:00,
2013-08-11 11:55:00,93.0,72.0,29.71,SE,139,2.0,5.0,50,0.00,,,0.00,798.000000,,2013-08-11 16:55:00,
2013-08-11 12:12:00,93.0,72.0,29.70,North,5,1.0,5.0,51,0.00,,,0.00,830.000000,,2013-08-11 17:12:00,
2013-08-11 12:24:00,94.0,71.0,29.70,SSE,164,1.0,7.0,48,0.00,,,0.00,853.000000,,2013-08-11 17:24:00,
2013-08-11 12:34:00,94.0,71.0,29.70,SSE,164,1.0,7.0,48,0.00,,,0.00,853.000000,,2013-08-11 17:34:00,
2013-08-11 12:44:00,95.0,72.0,29.69,ESE,102,0.0,6.0,47,0.00,,,0.00,870.000000,,2013-08-11 17:44:00,
2013-08-11 12:54:00,96.0,72.0,29.69,South,188,3.0,7.0,46,0.00,,,0.00,881.000000,,2013-08-11 17:54:00,
2013-08-11 13:05:00,96.0,72.0,29.69,South,188,3.0,7.0,46,0.00,,,0.00,881.000000,,2013-08-11 18:05:00,
2013-08-11 13:17:00,97.0,71.0,29.68,SE,141,4.0,7.0,44,0.00,,,0.00,905.000000,,2013-08-11 18:17:00,
2013-08-11 13:23:00,98.0,71.0,29.68,East,101,4.0,8.0,42,0.00,,,0.00,925.000000,,2013-08-11 18:23:00,
2013-08-11 13:37:00,98.0,71.0,29.68,East,101,4.0,8.0,42,0.00,,,0.00,925.000000,,2013-08-11 18:37:00,
2013-08-11 13:53:00,98.0,71.0,29.67,West,263,2.0,7.0,42,0.00,,,0.00,926.000000,,2013-08-11 18:53:00,
2013-08-11 14:04:00,98.0,71.0,29.67,West,263,2.0,7.0,42,0.00,,,0.00,926.000000,,2013-08-11 19:04:00,
2013-08-11 14:14:00,99.0,70.0,29.67,ESE,111,2.0,7.0,40,0.00,,,0.00,942.000000,,2013-08-11 19:14:00,
2013-08-11 14:23:00,99.0,70.0,29.66,SW,227,0.0,5.0,39,0.00,,,0.00,930.000000,,2013-08-11 19:23:00,
2013-08-11 14:32:00,99.0,70.0,29.66,SW,227,0.0,5.0,39,0.00,,,0.00,930.000000,,2013-08-11 19:32:00,
2013-08-11 14:56:00,101.0,71.0,29.65,South,190,0.0,3.0,38,0.00,,,0.00,919.000000,,2013-08-11 19:56:00,
2013-08-11 15:03:00,101.0,71.0,29.65,South,190,0.0,3.0,38,0.00,,,0.00,919.000000,,2013-08-11 20:03:00,
2013-08-11 15:17:00,100.0,70.0,29.64,East,79,1.0,7.0,38,0.00,,,0.00,918.000000,,2013-08-11 20:17:00,
2013-08-11 15:25:00,98.0,69.0,29.63,East,86,1.0,5.0,39,0.00,,,0.00,179.000000,,2013-08-11 20:25:00,
2013-08-11 15:36:00,98.0,69.0,29.63,East,86,1.0,5.0,39,0.00,,,0.00,179.000000,,2013-08-11 20:36:00,
2013-08-11 15:46:00,98.0,68.0,29.62,ENE,71,1.0,5.0,38,0.00,,,0.00,121.000000,,2013-08-11 20:46:00,
2013-08-11 15:53:00,98.0,67.0,29.62,NNE,31,1.0,4.0,37,0.00,,,0.00,207.000000,,2013-08-11 20:53:00,
2013-08-11 16:05:00,98.0,67.0,29.62,NNE,31,1.0,4.0,37,0.00,,,0.00,207.000000,,2013-08-11 21:05:00,
2013-08-11 16:12:00,101.0,67.0,29.61,ESE,121,1.0,5.0,33,0.00,,,0.00,777.000000,,2013-08-11 21:12:00,
2013-08-11 16:33:00,101.0,67.0,29.61,ENE,66,2.0,6.0,34,0.00,,,0.00,747.000000,,2013-08-11 21:33:00,
2013-08-11 16:46:00,101.0,67.0,29.60,WNW,297,1.0,6.0,33,0.00,,,0.00,698.000000,,2013-08-11 21:46:00,
2013-08-11 16:53:00,101.0,67.0,29.60,ESE,115,3.0,8.0,34,0.00,,,0.00,650.000000,,2013-08-11 21:53:00,
2013-08-11 17:03:00,101.0,67.0,29.60,ESE,115,3.0,8.0,34,0.00,,,0.00,650.000000,,2013-08-11 22:03:00,
2013-08-11 17:13:00,100.0,67.0,29.59,SE,126,3.0,6.0,35,0.00,,,0.00,582.000000,,2013-08-11 22:13:00,
2013-08-11 17:24:00,101.0,67.0,29.59,NE,38,0.0,6.0,34,0.00,,,0.00,118.000000,,2013-08-11 22:24:00,
2013-08-11 17:35:00,101.0,67.0,29.59,NE,38,0.0,6.0,34,0.00,,,0.00,118.000000,,2013-08-11 22:35:00,
2013-08-11 17:46:00,100.0,66.0,29.58,NE,55,1.0,6.0,33,0.00,,,0.00,204.000000,,2013-08-11 22:46:00,
2013-08-11 17:53:00,100.0,66.0,29.58,NNE,27,1.0,6.0,33,0.00,,,0.00,93.000000,,2013-08-11 22:53:00,
2013-08-11 18:03:00,100.0,66.0,29.58,NNE,27,1.0,6.0,33,0.00,,,0.00,93.000000,,2013-08-11 23:03:00,
2013-08-11 18:15:00,99.0,66.0,29.58,ENE,77,0.0,6.0,34,0.00,,,0.00,88.000000,,2013-08-11 23:15:00,
2013-08-11 18:25:00,99.0,66.0,29.58,ENE,58,0.0,3.0,34,0.00,,,0.00,156.000000,,2013-08-11 23:25:00,
2013-08-11 18:46:00,98.0,66.0,29.58,ENE,64,3.0,7.0,36,0.00,,,0.00,72.000000,,2013-08-11 23:46:00,
2013-08-11 19:04:00,98.0,66.0,29.58,ESE,113,2.0,8.0,35,0.00,,,0.00,67.000000,,2013-08-12 00:04:00,
2013-08-11 19:16:00,98.0,66.0,29.59,ESE,115,0.0,8.0,36,0.00,,,0.00,53.000000,,2013-08-12 00:16:00,
2013-08-11 19:23:00,97.0,66.0,29.59,East,94,1.0,5.0,36,0.00,,,0.00,44.000000,,2013-08-12 00:23:00,
2013-08-11 19:47:00,96.0,68.0,29.59,SE,126,4.0,8.0,41,0.00,,,0.00,33.000000,,2013-08-12 00:47:00,
2013-08-11 19:53:00,95.0,68.0,29.59,ESE,111,1.0,6.0,42,0.00,,,0.00,18.000000,,2013-08-12 00:53:00,
2013-08-11 20:05:00,95.0,68.0,29.59,ESE,111,1.0,6.0,42,0.00,,,0.00,18.000000,,2013-08-12 01:05:00,
2013-08-11 20:13:00,95.0,68.0,29.59,ESE,118,2.0,8.0,42,0.00,,,0.00,9.000000,,2013-08-12 01:13:00,
2013-08-11 20:23:00,94.0,68.0,29.59,ESE,123,3.0,6.0,43,0.00,,,0.00,0.000000,,2013-08-12 01:23:00,
2013-08-11 20:34:00,94.0,68.0,29.59,ESE,123,3.0,6.0,43,0.00,,,0.00,0.000000,,2013-08-12 01:34:00,
2013-08-11 20:45:00,94.0,69.0,29.60,ESE,107,1.0,5.0,45,0.00,,,0.00,0.000000,,2013-08-12 01:45:00,
2013-08-11 20:53:00,90.0,68.0,29.61,East,90,6.0,13.0,49,0.00,,,0.00,0.000000,,2013-08-12 01:53:00,
2013-08-11 21:05:00,90.0,68.0,29.61,East,90,6.0,13.0,49,0.00,,,0.00,0.000000,,2013-08-12 02:05:00,
2013-08-11 21:13:00,88.0,70.0,29.61,SE,132,6.0,14.0,56,0.00,,,0.00,0.000000,,2013-08-12 02:13:00,
2013-08-11 21:23:00,87.0,70.0,29.61,East,93,5.0,9.0,57,0.00,,,0.00,0.000000,,2013-08-12 02:23:00,
2013-08-11 21:35:00,87.0,70.0,29.61,East,93,5.0,9.0,57,0.00,,,0.00,0.000000,,2013-08-12 02:35:00,
2013-08-11 21:46:00,87.0,69.0,29.62,East,87,3.0,8.0,56,0.00,,,0.00,0.000000,,2013-08-12 02:46:00,
2013-08-11 21:53:00,86.0,69.0,29.62,ESE,121,1.0,5.0,57,0.00,,,0.00,0.000000,,2013-08-12 02:53:00,
2013-08-11 22:05:00,86.0,69.0,29.62,ESE,121,1.0,5.0,57,0.00,,,0.00,0.000000,,2013-08-12 03:05:00,
2013-08-11 22:14:00,86.0,69.0,29.62,East,97,2.0,8.0,57,0.00,,,0.00,0.000000,,2013-08-12 03:14:00,
2013-08-11 22:25:00,86.0,69.0,29.63,SE,138,2.0,7.0,57,0.00,,,0.00,0.000000,,2013-08-12 03:25:00,
2013-08-11 22:36:00,86.0,69.0,29.63,SE,138,2.0,7.0,57,0.00,,,0.00,0.000000,,2013-08-12 03:36:00,
2013-08-11 22:45:00,86.0,69.0,29.64,ESE,107,0.0,4.0,57,0.00,,,0.00,0.000000,,2013-08-12 03:45:00,
2013-08-11 23:02:00,86.0,69.0,29.65,ESE,107,0.0,1.0,57,0.00,,,0.00,0.000000,,2013-08-12 04:02:00,
2013-08-11 23:12:00,86.0,69.0,29.67,ESE,120,2.0,5.0,57,0.00,,,0.00,0.000000,,2013-08-12 04:12:00,
2013-08-11 23:33:00,86.0,69.0,29.67,SE,141,2.0,7.0,57,0.00,,,0.00,0.000000,,2013-08-12 04:33:00,
2013-08-11 23:43:00,85.0,69.0,29.67,SSE,160,3.0,8.0,59,0.00,,,0.00,0.000000,,2013-08-12 04:43:00,
2013-08-11 23:52:00,86.0,70.0,29.69,SSW,213,1.0,6.0,59,0.00,,,0.00,0.000000,,2013-08-12 04:52:00,